createdAt,value
2018-06-17T00:02:03.158Z,97949.25
2018-06-17T00:04:35.494Z,97950.30
2018-06-17T00:07:08.063Z,97954.80
2018-06-17T00:09:40.742Z,97962.59
2018-06-17T00:12:13.462Z,97960.19
2018-06-17T00:14:46.295Z,97959.10
2018-06-17T00:17:18.364Z,97961.80
2018-06-17T00:20:53.776Z,97960.16
2018-06-17T00:23:26.899Z,97966.23
2018-06-17T00:25:59.985Z,97971.88
2018-06-17T00:28:32.272Z,97978.86
2018-06-17T00:31:05.160Z,97970.27
2018-06-17T00:33:37.672Z,97982.34
2018-06-17T00:36:11.679Z,97983.69
2018-06-17T00:38:44.158Z,97988.55
2018-06-17T00:41:17.285Z,97984.73
2018-06-17T00:43:50.348Z,97989.30
2018-06-17T00:46:22.965Z,97996.33
2018-06-17T00:48:56.346Z,98006.39
2018-06-17T00:51:29.523Z,98006.20
2018-06-17T00:54:02.662Z,98003.86
2018-06-17T00:56:35.968Z,98007.94
2018-06-17T00:59:08.410Z,98012.83
2018-06-17T01:01:40.803Z,98014.48
2018-06-17T01:04:14.123Z,98021.80
2018-06-17T01:06:47.616Z,98023.14
2018-06-17T01:09:20.635Z,98022.52
2018-06-17T01:11:54.053Z,98024.09
2018-06-17T01:14:26.726Z,98024.02
2018-06-17T01:17:00.261Z,98037.44
2018-06-17T01:19:33.228Z,98039.84
2018-06-17T01:22:06.805Z,98039.67
2018-06-17T01:24:38.623Z,98037.88
2018-06-17T01:27:11.822Z,98040.86
2018-06-17T01:29:43.950Z,98051.26
2018-06-17T01:32:16.678Z,98049.87
2018-06-17T01:34:49.875Z,98050.84
2018-06-17T01:37:22.534Z,98061.97
2018-06-17T01:39:54.776Z,98063.77
2018-06-17T01:42:27.830Z,98065.91
2018-06-17T01:45:00.479Z,98067.77
2018-06-17T01:47:33.296Z,98063.83
2018-06-17T01:50:06.294Z,98067.34
2018-06-17T01:52:39.163Z,98070.91
2018-06-17T01:55:12.987Z,98072.92
2018-06-17T01:57:46.475Z,98073.38
2018-06-17T02:00:18.755Z,98078.51
2018-06-17T02:02:50.986Z,98083.84
2018-06-17T02:05:28.437Z,98085.70
2018-06-17T02:08:05.555Z,98092.48
2018-06-17T02:10:42.233Z,98094.86
2018-06-17T02:13:15.259Z,98098.03
2018-06-17T02:15:48.131Z,98097.20
2018-06-17T02:18:20.576Z,98100.70
2018-06-17T02:20:53.786Z,98099.30
2018-06-17T02:23:27.245Z,98102.51
2018-06-17T02:26:00.054Z,98094.32
2018-06-17T02:28:33.215Z,98101.31
2018-06-17T02:31:06.395Z,98107.75
2018-06-17T02:33:38.899Z,98108.03
2018-06-17T02:36:12.026Z,98111.93
2018-06-17T02:38:45.111Z,98117.06
2018-06-17T02:41:17.474Z,98118.80
2018-06-17T02:43:50.020Z,98119.53
2018-06-17T02:46:27.145Z,98117.89
2018-06-17T02:49:04.883Z,98112.88
2018-06-17T02:51:41.633Z,98124.63
2018-06-17T02:54:19.560Z,98136.01
2018-06-17T02:56:51.977Z,98130.91
2018-06-17T02:59:25.416Z,98137.95
2018-06-17T03:01:58.536Z,98134.23
2018-06-17T03:04:32.438Z,98138.25
2018-06-17T03:07:04.348Z,98130.73
2018-06-17T03:09:37.756Z,98136.91
2018-06-17T03:12:10.991Z,98134.39
2018-06-17T03:14:43.973Z,98131.40
2018-06-17T03:17:16.392Z,98140.11
2018-06-17T03:19:49.113Z,98141.92
2018-06-17T03:22:22.266Z,98143.20
2018-06-17T03:24:59.532Z,98140.08
2018-06-17T03:27:35.953Z,98140.98
2018-06-17T03:30:12.629Z,98145.31
2018-06-17T03:32:50.261Z,98145.59
2018-06-17T03:36:28.832Z,98143.98
2018-06-17T03:39:01.638Z,98148.45
2018-06-17T03:41:34.931Z,98152.02
2018-06-17T03:44:07.500Z,98153.83
2018-06-17T03:46:40.642Z,98155.17
2018-06-17T03:49:14.915Z,98160.08
2018-06-17T03:51:48.469Z,98160.30
2018-06-17T03:54:21.799Z,98162.69
2018-06-17T03:56:55.049Z,98163.64
2018-06-17T03:59:27.595Z,98165.59
2018-06-17T04:02:00.689Z,98167.11
2018-06-17T04:04:37.565Z,98167.19
2018-06-17T04:07:09.984Z,98170.62
2018-06-17T04:09:42.370Z,98167.54
2018-06-17T04:12:15.240Z,98169.41
2018-06-17T04:14:47.914Z,98170.31
2018-06-17T04:17:21.078Z,98172.78
2018-06-17T04:19:54.386Z,98169.62
2018-06-17T04:22:27.343Z,98169.31
2018-06-17T04:24:59.602Z,98173.81
2018-06-17T04:27:32.501Z,98178.53
2018-06-17T04:30:05.507Z,98179.25
2018-06-17T04:32:38.855Z,98183.81
2018-06-17T04:35:10.807Z,98183.41
2018-06-17T04:37:43.503Z,98182.36
2018-06-17T04:40:16.600Z,98184.88
2018-06-17T04:42:49.091Z,98185.78
2018-06-17T04:45:21.978Z,98184.73
2018-06-17T04:47:54.197Z,98191.14
2018-06-17T04:50:27.075Z,98183.31
2018-06-17T04:52:59.726Z,98176.57
2018-06-17T04:55:32.292Z,98179.84
2018-06-17T04:58:05.180Z,98181.73
2018-06-17T05:00:38.249Z,98179.78
2018-06-17T05:03:11.532Z,98178.76
2018-06-17T05:05:44.571Z,98183.31
2018-06-17T05:08:17.549Z,98181.50
2018-06-17T05:10:50.066Z,98184.96
2018-06-17T05:13:24.964Z,98185.01
2018-06-17T05:15:57.913Z,98179.19
2018-06-17T05:18:31.053Z,98176.80
2018-06-17T05:21:03.900Z,98180.02
2018-06-17T05:23:37.134Z,98185.22
2018-06-17T05:26:09.783Z,98183.35
2018-06-17T05:28:42.749Z,98177.09
2018-06-17T05:31:15.851Z,98179.92
2018-06-17T05:33:49.236Z,98189.94
2018-06-17T05:36:22.317Z,98182.16
2018-06-17T05:38:55.285Z,98175.34
2018-06-17T05:41:29.684Z,98177.43
2018-06-17T05:44:02.638Z,98175.56
2018-06-17T05:46:35.400Z,98176.91
2018-06-17T05:49:08.447Z,98174.45
2018-06-17T05:51:41.772Z,98170.16
2018-06-17T05:54:14.879Z,98176.89
2018-06-17T05:56:47.704Z,98165.11
2018-06-17T05:59:20.617Z,98158.06
2018-06-17T06:01:53.869Z,98162.53
2018-06-17T06:04:27.361Z,98159.54
2018-06-17T06:07:00.475Z,98161.00
2018-06-17T06:09:33.152Z,98164.25
2018-06-17T06:12:06.015Z,98164.00
2018-06-17T06:14:39.359Z,98155.35
2018-06-17T06:17:12.977Z,98157.75
2018-06-17T06:19:46.408Z,98141.41
2018-06-17T06:22:18.912Z,98152.27
2018-06-17T06:24:51.895Z,98151.73
2018-06-17T06:27:23.987Z,98149.49
2018-06-17T06:29:58.166Z,98144.70
2018-06-17T06:32:32.828Z,98144.86
2018-06-17T06:35:05.595Z,98151.36
2018-06-17T06:37:39.624Z,98148.14
2018-06-17T06:40:15.007Z,98145.30
2018-06-17T06:42:48.314Z,98138.12
2018-06-17T06:45:22.195Z,98128.41
2018-06-17T06:47:55.311Z,98129.00
2018-06-17T06:50:27.923Z,98126.39
2018-06-17T06:53:00.793Z,98127.13
2018-06-17T06:55:33.872Z,98133.16
2018-06-17T06:58:07.253Z,98126.28
2018-06-17T07:00:41.380Z,98132.94
2018-06-17T07:03:23.508Z,98120.74
2018-06-17T07:06:05.041Z,98111.05
2018-06-17T07:08:48.025Z,98115.66
2018-06-17T07:11:21.120Z,98112.81
2018-06-17T07:13:54.357Z,98114.27
2018-06-17T07:16:36.611Z,98106.13
2018-06-17T07:19:09.503Z,98105.78
2018-06-17T07:21:42.194Z,98100.06
2018-06-17T07:24:14.860Z,98095.53
2018-06-17T07:27:00.644Z,98089.59
2018-06-17T07:29:46.647Z,98078.63
2018-06-17T07:32:20.126Z,98072.98
2018-06-17T07:34:53.417Z,98071.30
2018-06-17T07:37:26.532Z,98066.73
2018-06-17T07:41:02.385Z,98067.96
2018-06-17T07:43:36.684Z,98065.56
2018-06-17T07:46:10.900Z,98053.09
2018-06-17T07:49:52.347Z,98055.19
2018-06-17T07:52:35.255Z,98056.83
2018-06-17T07:55:08.446Z,98054.03
2018-06-17T07:57:41.232Z,98045.95
2018-06-17T08:00:16.440Z,98029.80
2018-06-17T08:02:49.489Z,98034.53
2018-06-17T08:05:23.356Z,98028.45
2018-06-17T08:07:57.440Z,98025.52
2018-06-17T08:10:30.413Z,98017.74
2018-06-17T08:13:04.741Z,98013.41
2018-06-17T08:15:38.368Z,98015.61
2018-06-17T08:18:11.645Z,98008.94
2018-06-17T08:20:47.115Z,98012.22
2018-06-17T08:23:20.389Z,98008.84
2018-06-17T08:25:56.192Z,98004.27
2018-06-17T08:28:30.054Z,98000.23
2018-06-17T08:31:03.233Z,97992.67
2018-06-17T08:33:35.948Z,97991.20
2018-06-17T08:36:08.974Z,97987.45
2018-06-17T08:38:41.965Z,97973.11
2018-06-17T08:41:16.450Z,97978.91
2018-06-17T08:43:49.097Z,97965.53
2018-06-17T08:46:22.790Z,97963.92
2018-06-17T08:48:55.586Z,97961.95
2018-06-17T08:51:28.847Z,97960.98
2018-06-17T08:54:04.692Z,97956.91
2018-06-17T08:56:37.838Z,97949.65
2018-06-17T08:59:11.250Z,97938.81
2018-06-17T09:01:44.909Z,97943.88
2018-06-17T09:04:18.892Z,97943.59
2018-06-17T09:06:53.474Z,97949.21
2018-06-17T09:09:26.896Z,97937.53
2018-06-17T09:12:04.963Z,97931.46
2018-06-17T09:14:38.370Z,97930.64
2018-06-17T09:17:11.554Z,97932.66
2018-06-17T09:19:46.962Z,97929.99
2018-06-17T09:22:20.204Z,97927.53
2018-06-17T09:24:55.458Z,97923.31
2018-06-17T09:27:30.199Z,97920.15
2018-06-17T09:30:03.473Z,97907.14
2018-06-17T09:32:36.925Z,97909.02
2018-06-17T09:35:11.214Z,97908.55
2018-06-17T09:37:44.925Z,97910.19
2018-06-17T09:40:17.669Z,97911.83
2018-06-17T09:42:50.311Z,97904.91
2018-06-17T09:45:24.340Z,97905.36
2018-06-17T09:47:58.039Z,97894.79
2018-06-17T09:50:31.413Z,97887.27
2018-06-17T09:53:04.601Z,97892.38
2018-06-17T09:55:37.760Z,97897.87
2018-06-17T09:58:10.970Z,97886.70
2018-06-17T10:00:45.221Z,97895.19
2018-06-17T10:03:18.449Z,97891.22
2018-06-17T10:05:52.589Z,97889.32
2018-06-17T10:08:25.173Z,97873.98
2018-06-17T10:11:01.417Z,97877.50
2018-06-17T10:13:37.024Z,97870.61
2018-06-17T10:16:11.531Z,97862.20
2018-06-17T10:18:43.892Z,97862.91
2018-06-17T10:21:18.629Z,97862.73
2018-06-17T10:23:52.324Z,97863.05
2018-06-17T10:26:24.969Z,97860.19
2018-06-17T10:28:58.873Z,97865.84
2018-06-17T10:31:32.793Z,97858.84
2018-06-17T10:34:06.120Z,97852.36
2018-06-17T10:36:40.204Z,97847.73
2018-06-17T10:39:13.413Z,97847.81
2018-06-17T10:41:46.549Z,97846.17
2018-06-17T10:44:19.195Z,97843.48
2018-06-17T10:46:52.082Z,97833.44
2018-06-17T10:49:25.508Z,97839.41
2018-06-17T10:51:58.624Z,97834.09
2018-06-17T10:54:32.005Z,97832.96
2018-06-17T10:57:05.483Z,97833.61
2018-06-17T10:59:39.376Z,97830.63
2018-06-17T11:02:13.628Z,97825.66
2018-06-17T11:04:48.360Z,97829.75
2018-06-17T11:07:20.573Z,97834.52
2018-06-17T11:09:53.838Z,97826.07
2018-06-17T11:12:26.341Z,97825.42
2018-06-17T11:14:58.994Z,97824.43
2018-06-17T11:17:32.554Z,97821.37
2018-06-17T11:20:04.934Z,97822.17
2018-06-17T11:22:38.055Z,97821.37
2018-06-17T11:25:11.489Z,97820.84
2018-06-17T11:27:44.278Z,97823.78
2018-06-17T11:30:17.079Z,97823.59
2018-06-17T11:32:52.847Z,97824.00
2018-06-17T11:35:26.280Z,97826.00
2018-06-17T11:37:58.982Z,97825.59
2018-06-17T11:40:34.182Z,97824.53
2018-06-17T11:43:10.054Z,97818.73
2018-06-17T11:45:43.916Z,97823.42
2018-06-17T11:48:16.846Z,97820.01
2018-06-17T11:50:52.246Z,97818.12
2018-06-17T11:53:25.899Z,97821.35
2018-06-17T11:55:59.933Z,97820.37
2018-06-17T11:58:34.583Z,97818.15
2018-06-17T12:01:07.505Z,97817.56
2018-06-17T12:03:41.086Z,97819.48
2018-06-17T12:06:14.239Z,97815.69
2018-06-17T12:08:47.445Z,97817.09
2018-06-17T12:11:22.810Z,97817.43
2018-06-17T12:13:56.051Z,97820.31
2018-06-17T12:16:29.154Z,97822.72
2018-06-17T12:19:02.190Z,97817.31
2018-06-17T12:21:35.394Z,97823.78
2018-06-17T12:24:08.486Z,97826.48
2018-06-17T12:26:41.623Z,97822.96
2018-06-17T12:29:15.496Z,97822.41
2018-06-17T12:31:48.693Z,97823.23
2018-06-17T12:34:21.591Z,97824.87
2018-06-17T12:36:54.837Z,97825.40
2018-06-17T12:39:27.273Z,97832.96
2018-06-17T12:42:00.875Z,97828.91
2018-06-17T12:44:33.836Z,97831.56
2018-06-17T12:47:06.358Z,97825.88
2018-06-17T12:49:39.278Z,97828.52
2018-06-17T12:52:12.347Z,97826.35
2018-06-17T12:54:45.222Z,97826.41
2018-06-17T12:57:18.178Z,97829.87
2018-06-17T12:59:50.769Z,97833.44
2018-06-17T13:02:24.088Z,97831.80
2018-06-17T13:04:56.832Z,97829.39
2018-06-17T13:07:30.426Z,97827.46
2018-06-17T13:10:03.544Z,97836.66
2018-06-17T13:12:37.383Z,97830.45
2018-06-17T13:15:10.443Z,97829.63
2018-06-17T13:17:43.465Z,97836.37
2018-06-17T13:20:16.265Z,97836.66
2018-06-17T13:22:49.263Z,97844.22
2018-06-17T13:25:22.467Z,97843.64
2018-06-17T13:27:55.496Z,97846.09
2018-06-17T13:30:28.750Z,97859.00
2018-06-17T13:33:01.637Z,97860.61
2018-06-17T13:35:35.775Z,97863.02
2018-06-17T13:38:09.563Z,97866.19
2018-06-17T13:40:43.920Z,97881.55
2018-06-17T13:43:16.986Z,97885.83
2018-06-17T13:45:50.326Z,97889.61
2018-06-17T13:48:23.621Z,97895.77
2018-06-17T13:50:56.972Z,97896.91
2018-06-17T13:53:30.275Z,97899.81
2018-06-17T13:56:03.558Z,97897.41
2018-06-17T13:58:36.845Z,97904.91
2018-06-17T14:01:09.382Z,97903.27
2018-06-17T14:03:42.568Z,97910.06
2018-06-17T14:06:16.007Z,97910.30
2018-06-17T14:08:49.282Z,97911.56
2018-06-17T14:11:21.778Z,97907.49
2018-06-17T14:13:54.759Z,97909.13
2018-06-17T14:16:27.780Z,97914.76
2018-06-17T14:19:01.362Z,97910.95
2018-06-17T14:21:34.176Z,97921.44
2018-06-17T14:24:07.622Z,97924.38
2018-06-17T14:26:40.674Z,97924.95
2018-06-17T14:29:14.260Z,97933.80
2018-06-17T14:31:47.376Z,97934.91
2018-06-17T14:34:20.820Z,97941.56
2018-06-17T14:36:54.091Z,97944.56
2018-06-17T14:39:27.219Z,97945.61
2018-06-17T14:42:04.687Z,97946.67
2018-06-17T14:46:45.691Z,97942.69
2018-06-17T14:49:23.817Z,97945.26
2018-06-17T14:52:01.283Z,97947.48
2018-06-17T14:54:34.485Z,97946.08
2018-06-17T14:57:08.500Z,97950.13
2018-06-17T14:59:41.248Z,97952.64
2018-06-17T15:02:14.072Z,97952.81
2018-06-17T15:04:47.109Z,97955.42
2018-06-17T15:07:20.492Z,97952.79
2018-06-17T15:09:53.963Z,97948.48
2018-06-17T15:12:27.216Z,97954.16
2018-06-17T15:15:00.703Z,97950.65
2018-06-17T15:17:33.973Z,97958.20
2018-06-17T15:20:07.444Z,97954.40
2018-06-17T15:22:41.024Z,97956.01
2018-06-17T15:25:14.294Z,97966.00
2018-06-17T15:27:47.466Z,97963.59
2018-06-17T15:30:21.961Z,97971.98
2018-06-17T15:33:00.088Z,97974.44
2018-06-17T15:35:37.830Z,97975.27
2018-06-17T15:38:15.993Z,97976.84
2018-06-17T15:40:53.385Z,97981.12
2018-06-17T15:43:26.704Z,97989.79
2018-06-17T15:45:59.977Z,97992.48
2018-06-17T15:48:33.323Z,98001.33
2018-06-17T15:51:06.769Z,98003.27
2018-06-17T15:53:40.572Z,98006.42
2018-06-17T15:56:14.484Z,98007.48
2018-06-17T15:58:48.517Z,98008.07
2018-06-17T16:01:22.133Z,98022.66
2018-06-17T16:03:55.912Z,98027.46
2018-06-17T16:06:29.654Z,98022.59
2018-06-17T16:09:03.743Z,98025.59
2018-06-17T16:11:42.065Z,98022.50
2018-06-17T16:14:20.028Z,98028.19
2018-06-17T16:16:58.135Z,98033.64
2018-06-17T16:19:36.024Z,98034.17
2018-06-17T16:22:09.583Z,98035.39
2018-06-17T16:24:43.079Z,98037.63
2018-06-17T16:27:16.261Z,98041.95
2018-06-17T16:29:50.025Z,98037.39
2018-06-17T16:32:24.944Z,98040.38
2018-06-17T16:34:58.721Z,98043.86
2018-06-17T16:37:32.162Z,98047.91
2018-06-17T16:40:05.951Z,98045.77
2018-06-17T16:42:39.412Z,98043.60
2018-06-17T16:45:13.117Z,98040.91
2018-06-17T16:47:46.084Z,98040.91
2018-06-17T16:50:19.606Z,98041.66
2018-06-17T16:52:57.183Z,98038.67
2018-06-17T16:55:35.085Z,98040.31
2018-06-17T16:58:13.020Z,98037.91
2018-06-17T17:00:46.345Z,98036.50
2018-06-17T17:03:19.502Z,98036.17
2018-06-17T17:05:52.852Z,98031.94
2018-06-17T17:08:27.102Z,98030.00
2018-06-17T17:11:00.835Z,98038.08
2018-06-17T17:13:34.944Z,98034.04
2018-06-17T17:16:08.680Z,98036.44
2018-06-17T17:18:41.897Z,98035.39
2018-06-17T17:21:15.838Z,98035.69
2018-06-17T17:23:48.690Z,98030.59
2018-06-17T17:26:21.702Z,98032.69
2018-06-17T17:28:56.306Z,98035.16
2018-06-17T17:31:34.707Z,98035.09
2018-06-17T17:34:12.208Z,98034.53
2018-06-17T17:36:49.826Z,98040.74
2018-06-17T17:39:27.530Z,98039.80
2018-06-17T17:42:01.221Z,98037.75
2018-06-17T17:44:40.006Z,98039.33
2018-06-17T17:47:18.010Z,98041.73
2018-06-17T17:49:51.681Z,98041.73
2018-06-17T17:52:24.973Z,98039.80
2018-06-17T17:54:58.763Z,98043.90
2018-06-17T17:57:31.798Z,98044.13
2018-06-17T18:00:04.520Z,98042.78
2018-06-17T18:02:38.350Z,98042.22
2018-06-17T18:05:12.122Z,98038.45
2018-06-17T18:07:45.874Z,98045.77
2018-06-17T18:10:19.235Z,98035.75
2018-06-17T18:12:52.713Z,98040.05
2018-06-17T18:15:25.599Z,98035.19
2018-06-17T18:17:59.500Z,98031.45
2018-06-17T18:20:32.219Z,98031.67
2018-06-17T18:23:05.771Z,98029.31
2018-06-17T18:25:43.525Z,98030.56
2018-06-17T18:28:21.069Z,98034.60
2018-06-17T18:31:02.629Z,98035.65
2018-06-17T18:33:40.075Z,98031.31
2018-06-17T18:36:15.733Z,98033.25
2018-06-17T18:38:49.636Z,98034.80
2018-06-17T18:41:23.282Z,98041.53
2018-06-17T18:43:56.911Z,98033.45
2018-06-17T18:46:30.592Z,98032.36
2018-06-17T18:49:04.366Z,98033.45
2018-06-17T18:51:37.153Z,98033.68
2018-06-17T18:54:12.006Z,98024.81
2018-06-17T18:56:45.325Z,98018.89
2018-06-17T19:00:20.721Z,98021.03
2018-06-17T19:02:54.008Z,98021.03
2018-06-17T19:05:27.860Z,98022.87
2018-06-17T19:08:00.668Z,98029.97
2018-06-17T19:10:39.261Z,98028.39
2018-06-17T19:13:16.797Z,98027.60
2018-06-17T19:15:54.614Z,98028.69
2018-06-17T19:18:28.709Z,98027.93
2018-06-17T19:21:02.266Z,98033.70
2018-06-17T19:23:35.605Z,98030.95
2018-06-17T19:26:09.073Z,98031.31
2018-06-17T19:28:42.720Z,98023.75
2018-06-17T19:31:16.228Z,98029.14
2018-06-17T19:33:49.461Z,98023.75
2018-06-17T19:36:22.589Z,98018.66
2018-06-17T19:38:56.225Z,98015.97
2018-06-17T19:41:30.201Z,98008.71
2018-06-17T19:44:03.094Z,98004.14
2018-06-17T19:46:36.131Z,98000.86
2018-06-17T19:49:09.614Z,97998.45
2018-06-17T19:51:46.897Z,98000.56
2018-06-17T19:54:24.820Z,97998.98
2018-06-17T19:57:02.634Z,97990.55
2018-06-17T19:59:40.180Z,97990.55
2018-06-17T20:02:13.265Z,97978.91
2018-06-17T20:04:46.369Z,97963.87
2018-06-17T20:07:19.901Z,97970.83
2018-06-17T20:09:52.629Z,97968.14
2018-06-17T20:12:26.114Z,97968.14
2018-06-17T20:14:59.091Z,97970.83
2018-06-17T20:17:32.155Z,97961.87
2018-06-17T20:20:05.626Z,97958.95
2018-06-17T20:22:38.733Z,97961.11
2018-06-17T20:25:11.313Z,97954.38
2018-06-17T20:27:43.948Z,97953.56
2018-06-17T20:30:16.297Z,97948.17
2018-06-17T20:32:53.624Z,97949.45
2018-06-17T20:35:31.335Z,97946.76
2018-06-17T20:38:08.157Z,97942.48
2018-06-17T20:40:45.478Z,97938.94
2018-06-17T20:43:23.612Z,97937.53
2018-06-17T20:45:56.891Z,97924.66
2018-06-17T20:48:29.318Z,97929.22
2018-06-17T20:51:02.253Z,97922.42
2018-06-17T20:53:35.357Z,97924.82
2018-06-17T20:56:07.707Z,97919.63
2018-06-17T20:58:41.025Z,97917.80
2018-06-17T21:01:14.260Z,97910.01
2018-06-17T21:03:46.456Z,97909.45
2018-06-17T21:06:19.301Z,97914.84
2018-06-17T21:08:52.543Z,97909.78
2018-06-17T21:11:25.810Z,97909.72
2018-06-17T21:13:59.587Z,97907.22
2018-06-17T21:16:32.494Z,97902.12
2018-06-17T21:19:10.141Z,97898.32
2018-06-17T21:21:46.879Z,97905.12
2018-06-17T21:24:24.584Z,97906.47
2018-06-17T21:27:01.826Z,97903.18
2018-06-17T21:29:34.966Z,97892.88
2018-06-17T21:32:07.810Z,97889.63
2018-06-17T21:34:41.190Z,97894.71
2018-06-17T21:37:14.152Z,97889.63
2018-06-17T21:39:47.269Z,97885.84
2018-06-17T21:42:20.085Z,97886.34
2018-06-17T21:44:53.424Z,97877.67
2018-06-17T21:47:26.898Z,97876.55
2018-06-17T21:50:00.259Z,97877.08
2018-06-17T21:52:32.276Z,97879.55
2018-06-17T21:55:05.550Z,97879.31
2018-06-17T21:57:38.843Z,97883.64
2018-06-17T22:00:12.682Z,97886.86
2018-06-17T22:02:46.686Z,97883.35
2018-06-17T22:05:19.509Z,97887.69
2018-06-17T22:07:56.481Z,97884.17
2018-06-17T22:10:34.513Z,97889.98
2018-06-17T22:13:07.381Z,97885.36
2018-06-17T22:15:45.144Z,97882.66
2018-06-17T22:18:18.124Z,97879.91
2018-06-17T22:20:51.017Z,97893.14
2018-06-17T22:23:23.840Z,97890.97
2018-06-17T22:25:57.019Z,97903.88
2018-06-17T22:28:30.159Z,97908.86
2018-06-17T22:31:03.523Z,97915.13
2018-06-17T22:33:35.912Z,97918.35
2018-06-17T22:36:08.555Z,97913.49
2018-06-17T22:38:41.286Z,97913.78
2018-06-17T22:41:15.233Z,97915.30
2018-06-17T22:43:47.996Z,97917.16
2018-06-17T22:46:21.015Z,97926.06
2018-06-17T22:48:54.177Z,97933.69
2018-06-17T22:51:27.402Z,97932.62
2018-06-17T22:54:08.536Z,97938.17
2018-06-17T22:56:46.074Z,97937.59
2018-06-17T22:59:22.810Z,97931.45
2018-06-17T23:02:00.920Z,97939.82
2018-06-17T23:05:40.105Z,97937.13
2018-06-17T23:08:17.878Z,97943.75
2018-06-17T23:10:51.446Z,97948.31
2018-06-17T23:13:24.240Z,97951.53
2018-06-17T23:15:57.094Z,97959.90
2018-06-17T23:18:30.812Z,97961.81
2018-06-17T23:21:04.026Z,97956.09
2018-06-17T23:23:36.506Z,97964.92
2018-06-17T23:26:11.700Z,97970.27
2018-06-17T23:28:45.636Z,97968.43
2018-06-17T23:31:18.696Z,97967.73
2018-06-17T23:33:51.191Z,97959.66
2018-06-17T23:36:23.726Z,97966.38
2018-06-17T23:38:57.061Z,97964.70
2018-06-17T23:41:30.348Z,97976.29
2018-06-17T23:44:03.793Z,97981.08
2018-06-17T23:46:41.165Z,97985.86
2018-06-17T23:49:18.691Z,97992.29
2018-06-17T23:51:55.460Z,98001.26
2018-06-17T23:54:33.065Z,97999.69
2018-06-17T23:57:05.864Z,98003.66
2018-06-17T23:59:39.035Z,98005.97
